Time;durP1;ratioP1;P1;durP2;ratioP2;P2;SDS_P1;SDS_P2;PMS_P1;PMS_P2;Temp;Humidity;BMP_temperature;BMP_pressure;BME280_temperature;BME280_humidity;BME280_pressure;Samples;Min_cycle;Max_cycle;Signal;HPM_P1;HPM_P2
2023/10/22 00:01:26;;;;;;;;;;;11.80;99.90;;;;;;5039291;28;19954;-83
2023/10/22 00:03:51;;;;;;;;;;;11.80;99.90;;;;;;5033907;28;19921;-83
2023/10/22 00:06:17;;;;;;;;;;;11.80;99.90;;;;;;5068980;28;19955;-84
2023/10/22 00:08:43;;;;;;;;;;;12.40;99.90;;;;;;5052601;28;19924;-84
2023/10/22 00:11:08;;;;;;;;;;;11.80;99.90;;;;;;5027140;28;19929;-83
2023/10/22 00:13:34;;;;;;;;;;;11.90;99.90;;;;;;5054323;28;20421;-82
2023/10/22 00:15:59;;;;;;;;;;;11.80;99.90;;;;;;5055137;28;19924;-81
2023/10/22 00:18:25;;;;;;;;;;;11.80;99.90;;;;;;5056886;28;20089;-81
2023/10/22 00:20:51;;;;;;;;;;;11.80;99.90;;;;;;5048566;28;20331;-87
2023/10/22 00:23:17;;;;;;;;;;;11.80;99.90;;;;;;5074505;28;19974;-86
2023/10/22 00:25:42;;;;;;;;;;;11.80;99.90;;;;;;5039273;28;19924;-84
2023/10/22 00:28:08;;;;;;;;;;;11.90;99.90;;;;;;5038233;28;20070;-81
2023/10/22 00:30:34;;;;;;;;;;;11.80;99.90;;;;;;5039897;28;20331;-86
2023/10/22 00:33:00;;;;;;;;;;;11.80;99.90;;;;;;5039112;28;20007;-80
2023/10/22 00:35:25;;;;;;;;;;;11.80;99.90;;;;;;5058259;28;20050;-85
2023/10/22 00:37:51;;;;;;;;;;;11.80;99.90;;;;;;5057864;28;19924;-82
2023/10/22 00:40:17;;;;;;;;;;;11.90;99.90;;;;;;5035274;28;19924;-82
2023/10/22 00:42:42;;;;;;;;;;;11.90;99.90;;;;;;5054666;28;20005;-85
2023/10/22 00:45:08;;;;;;;;;;;11.80;99.90;;;;;;5023688;28;20388;-80
2023/10/22 00:47:34;;;;;;;;;;;11.90;99.90;;;;;;5022993;28;19920;-84
2023/10/22 00:50:00;;;;;;;;;;;12.10;99.90;;;;;;5034678;28;19935;-84
2023/10/22 00:52:27;;;;;;;;;;;11.90;99.90;;;;;;5034356;28;21162;-85
2023/10/22 00:54:53;;;;;;;;;;;11.80;99.90;;;;;;5034609;28;20419;-82
2023/10/22 00:57:22;;;;;;;;;;;11.80;99.90;;;;;;5037924;28;19963;-81
2023/10/22 00:59:50;;;;;;;;;;;11.80;99.90;;;;;;5037395;28;19978;-80
2023/10/22 01:02:16;;;;;;;;;;;11.80;99.90;;;;;;5056208;28;19924;-82
2023/10/22 01:04:41;;;;;;;;;;;11.80;99.90;;;;;;5029159;28;19933;-81
2023/10/22 01:07:07;;;;;;;;;;;11.80;99.90;;;;;;5060740;28;20383;-83
2023/10/22 01:09:32;;;;;;;;;;;11.80;99.90;;;;;;5030988;28;19925;-80
2023/10/22 01:11:59;;;;;;;;;;;11.70;99.90;;;;;;5055265;28;20029;-82
2023/10/22 01:14:25;;;;;;;;;;;11.80;99.90;;;;;;5039218;28;20019;-83
2023/10/22 01:16:51;;;;;;;;;;;11.80;99.90;;;;;;5031591;28;19974;-83
2023/10/22 01:19:17;;;;;;;;;;;11.80;99.90;;;;;;5021004;28;19925;-84
2023/10/22 01:21:43;;;;;;;;;;;11.80;99.90;;;;;;5055262;28;20572;-82
2023/10/22 01:24:09;;;;;;;;;;;11.80;99.90;;;;;;5038648;28;19920;-83
2023/10/22 01:26:44;;;;;;;;;;;11.80;99.90;;;;;;5037673;28;19924;-85
2023/10/22 01:29:10;;;;;;;;;;;11.90;99.90;;;;;;5024707;28;20019;-85
2023/10/22 01:31:36;;;;;;;;;;;11.90;99.90;;;;;;5036110;28;20424;-83
2023/10/22 01:34:02;;;;;;;;;;;11.90;99.90;;;;;;5038530;28;19973;-84
2023/10/22 01:36:27;;;;;;;;;;;11.90;99.90;;;;;;5038053;28;19972;-83
2023/10/22 01:38:53;;;;;;;;;;;12.00;99.90;;;;;;5037598;28;19921;-83
2023/10/22 01:41:19;;;;;;;;;;;12.00;99.90;;;;;;5023224;28;19972;-85
2023/10/22 01:43:44;;;;;;;;;;;12.00;99.90;;;;;;5036947;28;19928;-83
2023/10/22 01:46:10;;;;;;;;;;;12.00;99.90;;;;;;5050542;28;19931;-83
2023/10/22 01:48:37;;;;;;;;;;;12.00;99.90;;;;;;5040853;28;20015;-83
2023/10/22 01:51:03;;;;;;;;;;;12.00;99.90;;;;;;5040459;28;20287;-81
2023/10/22 01:53:29;;;;;;;;;;;12.00;99.90;;;;;;5039385;28;19927;-81
2023/10/22 01:55:55;;;;;;;;;;;12.00;99.90;;;;;;5035873;28;19924;-80
2023/10/22 01:58:21;;;;;;;;;;;12.00;99.90;;;;;;5041206;28;19920;-83
2023/10/22 02:00:47;;;;;;;;;;;11.90;99.90;;;;;;5039824;28;19937;-83
2023/10/22 02:03:13;;;;;;;;;;;11.90;99.90;;;;;;5040552;28;20351;-83
2023/10/22 02:05:39;;;;;;;;;;;11.90;99.90;;;;;;5038124;28;19950;-83
2023/10/22 02:08:06;;;;;;;;;;;11.90;99.90;;;;;;5043417;28;19925;-86
2023/10/22 02:10:32;;;;;;;;;;;11.90;99.90;;;;;;5038425;28;19931;-83
2023/10/22 02:12:57;;;;;;;;;;;11.80;99.90;;;;;;5037486;28;20372;-86
2023/10/22 02:15:25;;;;;;;;;;;11.80;99.90;;;;;;5065642;28;19981;-81
2023/10/22 02:17:50;;;;;;;;;;;11.80;99.90;;;;;;5038892;28;19921;-81
2023/10/22 02:20:16;;;;;;;;;;;11.80;99.90;;;;;;5028867;28;19978;-84
2023/10/22 02:22:41;;;;;;;;;;;11.80;99.90;;;;;;5038615;28;20065;-87
2023/10/22 02:25:07;;;;;;;;;;;11.80;99.90;;;;;;5053601;28;19921;-81
2023/10/22 02:27:33;;;;;;;;;;;11.80;99.90;;;;;;5053907;28;20464;-81
2023/10/22 02:29:58;;;;;;;;;;;11.70;99.90;;;;;;5046411;28;19927;-84
2023/10/22 02:32:24;;;;;;;;;;;11.70;99.90;;;;;;5040264;28;19932;-82
2023/10/22 02:34:52;;;;;;;;;;;11.80;99.90;;;;;;5054816;28;19921;-79
2023/10/22 02:37:18;;;;;;;;;;;11.70;99.90;;;;;;5022390;28;19927;-85
2023/10/22 02:39:43;;;;;;;;;;;11.70;99.90;;;;;;5035294;28;20295;-85
2023/10/22 02:42:09;;;;;;;;;;;11.70;99.90;;;;;;5069758;28;19925;-80
2023/10/22 02:44:34;;;;;;;;;;;11.00;99.90;;;;;;5052871;28;20022;-83
2023/10/22 02:47:01;;;;;;;;;;;11.60;99.90;;;;;;5052226;28;19924;-81
2023/10/22 02:49:26;;;;;;;;;;;11.60;99.90;;;;;;5066063;28;20035;-81
2023/10/22 02:51:52;;;;;;;;;;;11.60;99.90;;;;;;5037869;28;19968;-86
2023/10/22 02:54:18;;;;;;;;;;;11.60;99.90;;;;;;5023309;28;19920;-81
2023/10/22 02:56:44;;;;;;;;;;;11.50;99.90;;;;;;5069036;28;19942;-81
2023/10/22 02:59:09;;;;;;;;;;;11.50;99.90;;;;;;5050676;28;20335;-82
2023/10/22 03:01:35;;;;;;;;;;;11.50;99.90;;;;;;5017195;28;20028;-81
2023/10/22 03:04:01;;;;;;;;;;;11.50;99.90;;;;;;5049811;28;20348;-84
2023/10/22 03:06:27;;;;;;;;;;;11.50;99.90;;;;;;5062423;28;19920;-83
2023/10/22 03:08:52;;;;;;;;;;;11.50;99.90;;;;;;5058871;28;19966;-80
2023/10/22 03:11:21;;;;;;;;;;;11.40;99.90;;;;;;5073788;28;19920;-84
2023/10/22 03:13:46;;;;;;;;;;;11.40;99.90;;;;;;5042972;28;19924;-81
2023/10/22 03:16:15;;;;;;;;;;;11.40;99.90;;;;;;5034330;28;19927;-84
2023/10/22 03:18:42;;;;;;;;;;;11.50;99.90;;;;;;5056300;28;19969;-80
2023/10/22 03:21:17;;;;;;;;;;;11.50;99.90;;;;;;5040390;28;19924;-85
2023/10/22 03:23:43;;;;;;;;;;;11.40;99.90;;;;;;5090289;28;19929;-83
2023/10/22 03:26:11;;;;;;;;;;;11.40;99.90;;;;;;5053118;28;19923;-83
2023/10/22 03:28:37;;;;;;;;;;;11.40;99.90;;;;;;5039953;28;19920;-82
2023/10/22 03:31:06;;;;;;;;;;;11.40;99.90;;;;;;5079723;28;19927;-80
2023/10/22 03:33:32;;;;;;;;;;;11.40;99.90;;;;;;5057070;28;20424;-84
2023/10/22 03:35:58;;;;;;;;;;;11.40;99.90;;;;;;5025363;28;20015;-83
2023/10/22 03:38:27;;;;;;;;;;;11.40;99.90;;;;;;5053707;28;19966;-84
2023/10/22 03:41:03;;;;;;;;;;;11.40;99.90;;;;;;5042674;28;20500;-83
2023/10/22 03:43:29;;;;;;;;;;;11.40;99.90;;;;;;5060346;28;19921;-83
2023/10/22 03:45:55;;;;;;;;;;;11.40;99.90;;;;;;5047089;28;20291;-86
2023/10/22 03:48:21;;;;;;;;;;;11.40;99.90;;;;;;5042490;28;19928;-83
2023/10/22 03:50:47;;;;;;;;;;;11.40;99.90;;;;;;5038772;28;20003;-81
2023/10/22 03:53:12;;;;;;;;;;;11.40;99.90;;;;;;5044061;28;19968;-83
2023/10/22 03:55:38;;;;;;;;;;;11.40;99.90;;;;;;5025045;28;19946;-83
2023/10/22 03:58:04;;;;;;;;;;;11.40;99.90;;;;;;5039579;28;19978;-83
2023/10/22 04:00:30;;;;;;;;;;;11.50;99.90;;;;;;5054454;28;20367;-81
2023/10/22 04:02:55;;;;;;;;;;;11.50;99.90;;;;;;5023427;28;19924;-81
2023/10/22 04:05:22;;;;;;;;;;;11.50;99.90;;;;;;5057396;28;19926;-84
2023/10/22 04:07:48;;;;;;;;;;;11.50;99.90;;;;;;5015969;28;19969;-82
2023/10/22 04:10:15;;;;;;;;;;;11.50;99.90;;;;;;5038915;28;20755;-80
2023/10/22 04:12:40;;;;;;;;;;;11.50;99.90;;;;;;5031416;28;19945;-86
2023/10/22 04:15:06;;;;;;;;;;;11.50;99.90;;;;;;5020340;28;20019;-81
2023/10/22 04:17:32;;;;;;;;;;;11.50;99.90;;;;;;5029623;28;20574;-83
2023/10/22 04:19:58;;;;;;;;;;;11.50;99.90;;;;;;5027380;28;19920;-81
2023/10/22 04:22:23;;;;;;;;;;;11.50;99.90;;;;;;5044826;28;19955;-83
2023/10/22 04:24:49;;;;;;;;;;;11.50;99.90;;;;;;5056266;28;20560;-82
2023/10/22 04:27:15;;;;;;;;;;;11.50;99.90;;;;;;5026700;28;19924;-85
2023/10/22 04:29:42;;;;;;;;;;;11.50;99.90;;;;;;5033697;28;20454;-84
2023/10/22 04:32:07;;;;;;;;;;;11.50;99.90;;;;;;5038914;28;19951;-83
2023/10/22 04:34:33;;;;;;;;;;;11.50;99.90;;;;;;5039029;28;19981;-85
2023/10/22 04:36:58;;;;;;;;;;;11.50;99.90;;;;;;5040916;28;19951;-85
2023/10/22 04:39:24;;;;;;;;;;;11.50;99.90;;;;;;5038480;28;20011;-85
2023/10/22 04:41:50;;;;;;;;;;;11.50;99.90;;;;;;5060629;28;19931;-81
2023/10/22 04:44:16;;;;;;;;;;;11.50;99.90;;;;;;5038647;28;19969;-81
2023/10/22 04:46:41;;;;;;;;;;;11.50;99.90;;;;;;5059948;28;20261;-83
2023/10/22 04:49:07;;;;;;;;;;;11.50;99.90;;;;;;5041550;28;19970;-82
2023/10/22 04:51:33;;;;;;;;;;;11.50;99.90;;;;;;5071233;28;20010;-80
2023/10/22 04:53:58;;;;;;;;;;;11.60;99.90;;;;;;5038813;28;19963;-82
2023/10/22 04:56:24;;;;;;;;;;;11.50;99.90;;;;;;5063665;28;20357;-85
2023/10/22 04:58:49;;;;;;;;;;;11.50;99.90;;;;;;5051629;28;19920;-87
2023/10/22 05:01:15;;;;;;;;;;;11.50;99.90;;;;;;5041052;28;19925;-82
2023/10/22 05:03:41;;;;;;;;;;;11.50;99.90;;;;;;5059533;28;19958;-84
2023/10/22 05:06:06;;;;;;;;;;;11.50;99.90;;;;;;5058949;28;20015;-83
2023/10/22 05:08:34;;;;;;;;;;;11.50;99.90;;;;;;5046033;28;19920;-86
2023/10/22 05:10:59;;;;;;;;;;;11.50;99.90;;;;;;5070775;28;20042;-86
2023/10/22 05:13:25;;;;;;;;;;;11.50;99.90;;;;;;5071895;28;20264;-84
2023/10/22 05:15:51;;;;;;;;;;;11.60;99.90;;;;;;5061005;28;20545;-82
2023/10/22 05:18:17;;;;;;;;;;;11.60;99.90;;;;;;5060174;28;19943;-89
2023/10/22 05:20:43;;;;;;;;;;;11.50;99.90;;;;;;5058994;28;19925;-85
2023/10/22 05:23:08;;;;;;;;;;;11.50;99.90;;;;;;5044732;28;20337;-87
2023/10/22 05:25:34;;;;;;;;;;;11.60;99.90;;;;;;5059015;28;19924;-87
2023/10/22 05:28:00;;;;;;;;;;;11.50;99.90;;;;;;5039169;28;19971;-86
2023/10/22 05:30:25;;;;;;;;;;;11.50;99.90;;;;;;5046802;28;19927;-85
2023/10/22 05:32:51;;;;;;;;;;;11.50;99.90;;;;;;5049479;28;19920;-86
2023/10/22 05:35:16;;;;;;;;;;;11.60;99.90;;;;;;5063996;28;19931;-89
2023/10/22 05:37:43;;;;;;;;;;;11.60;99.90;;;;;;5064626;28;19952;-87
2023/10/22 05:40:11;;;;;;;;;;;11.60;99.90;;;;;;5040099;28;19924;-92
2023/10/22 05:42:37;;;;;;;;;;;11.60;99.90;;;;;;5058782;28;19924;-85
2023/10/22 05:45:04;;;;;;;;;;;11.70;99.90;;;;;;5039117;28;19970;-90
2023/10/22 05:47:31;;;;;;;;;;;11.60;99.90;;;;;;5060531;28;19964;-89
2023/10/22 05:49:58;;;;;;;;;;;11.60;99.90;;;;;;5056787;28;19943;-89
2023/10/22 05:52:25;;;;;;;;;;;11.70;99.90;;;;;;5080854;28;19920;-90
2023/10/22 05:54:54;;;;;;;;;;;11.70;99.90;;;;;;5047215;28;20298;-90
2023/10/22 05:57:21;;;;;;;;;;;11.70;99.90;;;;;;5063448;28;20263;-93
2023/10/22 05:59:47;;;;;;;;;;;11.70;99.90;;;;;;5059185;28;19920;-93
2023/10/22 06:02:12;;;;;;;;;;;11.70;99.90;;;;;;5058608;28;20535;-89
2023/10/22 06:04:38;;;;;;;;;;;11.80;99.90;;;;;;5074696;28;19920;-91
2023/10/22 06:07:04;;;;;;;;;;;11.70;99.90;;;;;;5075265;28;19930;-93
2023/10/22 06:09:29;;;;;;;;;;;11.70;99.90;;;;;;5062076;28;19919;-92
2023/10/22 06:11:55;;;;;;;;;;;11.80;99.90;;;;;;5077087;28;19965;-93
2023/10/22 06:14:21;;;;;;;;;;;11.80;99.90;;;;;;5062736;28;19920;-91
2023/10/22 06:16:46;;;;;;;;;;;11.80;99.90;;;;;;5063652;28;19985;-93
2023/10/22 06:19:13;;;;;;;;;;;11.80;99.90;;;;;;5059186;28;20367;-90
2023/10/22 06:21:39;;;;;;;;;;;11.40;99.90;;;;;;5054294;28;20496;-90
2023/10/22 06:24:06;;;;;;;;;;;11.80;99.90;;;;;;5068878;28;19928;-86
2023/10/22 06:26:31;;;;;;;;;;;11.80;99.90;;;;;;5041147;28;20002;-91
2023/10/22 06:28:57;;;;;;;;;;;11.90;99.90;;;;;;5062617;28;19936;-91
2023/10/22 06:31:23;;;;;;;;;;;11.90;99.90;;;;;;5064772;28;20000;-92
2023/10/22 06:33:49;;;;;;;;;;;11.90;99.90;;;;;;5075451;28;20219;-88
2023/10/22 06:36:15;;;;;;;;;;;11.90;99.90;;;;;;5045078;28;19946;-85
2023/10/22 06:38:45;;;;;;;;;;;11.90;99.90;;;;;;5045130;28;19924;-90
2023/10/22 06:41:24;;;;;;;;;;;11.80;99.90;;;;;;5075262;28;20421;-87
2023/10/22 06:43:50;;;;;;;;;;;11.20;99.90;;;;;;5073575;28;19928;-84
2023/10/22 06:46:19;;;;;;;;;;;11.70;99.90;;;;;;5062666;28;20705;-83
2023/10/22 06:48:45;;;;;;;;;;;11.70;99.90;;;;;;5054372;28;19932;-84
2023/10/22 06:51:11;;;;;;;;;;;11.70;99.90;;;;;;5061191;28;19930;-84
2023/10/22 06:53:37;;;;;;;;;;;11.70;99.90;;;;;;5055118;28;20027;-84
2023/10/22 06:56:03;;;;;;;;;;;11.70;99.90;;;;;;5054161;28;20321;-84
2023/10/22 06:58:29;;;;;;;;;;;11.60;99.90;;;;;;5038348;28;19920;-83
2023/10/22 07:01:11;;;;;;;;;;;11.60;99.90;;;;;;5037730;28;19932;-84
2023/10/22 07:03:39;;;;;;;;;;;11.60;99.90;;;;;;5069736;28;19931;-85
2023/10/22 07:06:05;;;;;;;;;;;11.60;99.90;;;;;;5060732;28;19962;-83
2023/10/22 07:08:31;;;;;;;;;;;11.20;99.90;;;;;;5056249;28;20070;-84
2023/10/22 07:10:57;;;;;;;;;;;11.50;99.90;;;;;;5064165;28;19920;-83
2023/10/22 07:13:23;;;;;;;;;;;11.50;99.90;;;;;;5056759;28;19963;-86
2023/10/22 07:15:49;;;;;;;;;;;11.50;99.90;;;;;;5049098;28;20359;-87
2023/10/22 07:18:15;;;;;;;;;;;11.50;99.90;;;;;;5057996;28;20157;-84
2023/10/22 07:20:40;;;;;;;;;;;11.50;99.90;;;;;;5068923;28;19939;-87
2023/10/22 07:23:07;;;;;;;;;;;11.50;99.90;;;;;;5065377;28;19957;-84
2023/10/22 07:25:33;;;;;;;;;;;11.50;99.90;;;;;;5078231;28;20061;-84
2023/10/22 07:27:59;;;;;;;;;;;11.50;99.90;;;;;;5042227;28;19924;-87
2023/10/22 07:30:24;;;;;;;;;;;11.50;99.90;;;;;;5105228;28;19924;-84
2023/10/22 07:32:51;;;;;;;;;;;11.50;99.90;;;;;;5063386;28;20635;-83
2023/10/22 07:35:17;;;;;;;;;;;11.50;99.90;;;;;;5079758;28;19959;-83
2023/10/22 07:37:44;;;;;;;;;;;11.50;99.90;;;;;;5059018;28;19924;-82
2023/10/22 07:40:10;;;;;;;;;;;11.50;99.90;;;;;;5060514;28;19930;-84
2023/10/22 07:42:36;;;;;;;;;;;11.60;99.90;;;;;;5055707;28;20320;-84
2023/10/22 07:45:02;;;;;;;;;;;11.50;99.90;;;;;;5058958;28;19999;-83
2023/10/22 07:47:28;;;;;;;;;;;11.80;99.90;;;;;;5039393;28;20056;-85
2023/10/22 07:49:53;;;;;;;;;;;11.50;99.90;;;;;;5051246;28;19920;-87
2023/10/22 07:52:19;;;;;;;;;;;11.50;99.90;;;;;;5073187;28;19920;-91
2023/10/22 07:54:47;;;;;;;;;;;11.50;99.90;;;;;;5051591;28;20364;-86
2023/10/22 07:57:13;;;;;;;;;;;11.50;99.90;;;;;;5059517;28;19924;-86
2023/10/22 07:59:38;;;;;;;;;;;11.50;99.90;;;;;;5042740;28;20386;-84
2023/10/22 08:02:07;;;;;;;;;;;11.50;99.90;;;;;;5066908;28;20378;-85
2023/10/22 08:04:32;;;;;;;;;;;11.40;99.90;;;;;;5045924;28;19969;-85
2023/10/22 08:06:58;;;;;;;;;;;11.40;99.90;;;;;;5040899;28;19987;-85
2023/10/22 08:09:23;;;;;;;;;;;11.40;99.90;;;;;;5051762;28;19920;-85
2023/10/22 08:11:49;;;;;;;;;;;11.40;99.90;;;;;;5040630;28;19999;-84
2023/10/22 08:14:15;;;;;;;;;;;11.40;99.90;;;;;;5044894;28;19924;-84
2023/10/22 08:16:40;;;;;;;;;;;11.40;99.90;;;;;;5059335;28;19930;-84
2023/10/22 08:19:06;;;;;;;;;;;11.40;99.90;;;;;;5060087;28;19970;-91
2023/10/22 08:21:32;;;;;;;;;;;11.40;99.90;;;;;;5062900;28;19931;-88
2023/10/22 08:23:57;;;;;;;;;;;11.40;99.90;;;;;;5056048;28;19963;-90
2023/10/22 08:26:25;;;;;;;;;;;11.40;99.90;;;;;;5062533;28;20401;-89
2023/10/22 08:28:51;;;;;;;;;;;11.40;99.90;;;;;;5061775;28;19920;-91
2023/10/22 08:31:16;;;;;;;;;;;11.50;99.90;;;;;;5059426;28;19920;-93
2023/10/22 08:33:42;;;;;;;;;;;11.50;99.90;;;;;;5061087;28;20575;-92
2023/10/22 08:36:08;;;;;;;;;;;11.50;99.90;;;;;;5061021;28;19966;-90
2023/10/22 08:38:34;;;;;;;;;;;10.60;99.90;;;;;;5078894;28;19977;-92
2023/10/22 08:41:05;;;;;;;;;;;11.60;99.90;;;;;;5048419;28;19934;-89
2023/10/22 08:43:32;;;;;;;;;;;11.60;99.90;;;;;;5081356;28;20031;-91
2023/10/22 08:45:58;;;;;;;;;;;11.60;99.90;;;;;;5045264;28;19991;-91
2023/10/22 08:48:24;;;;;;;;;;;11.30;99.90;;;;;;5042356;28;19956;-89
2023/10/22 08:50:51;;;;;;;;;;;11.80;99.90;;;;;;5064796;28;20416;-84
2023/10/22 08:53:17;;;;;;;;;;;11.80;99.90;;;;;;5057359;28;20006;-85
2023/10/22 08:55:45;;;;;;;;;;;11.80;99.90;;;;;;5091471;28;20003;-83
2023/10/22 08:58:11;;;;;;;;;;;11.90;99.90;;;;;;5078213;28;19924;-83
2023/10/22 09:00:38;;;;;;;;;;;11.90;99.90;;;;;;5059143;28;19954;-83
2023/10/22 09:03:04;;;;;;;;;;;11.90;99.90;;;;;;5064045;28;19920;-83
2023/10/22 09:05:29;;;;;;;;;;;11.90;99.90;;;;;;5059225;28;19924;-86
2023/10/22 09:07:55;;;;;;;;;;;12.00;99.90;;;;;;5059691;28;19928;-83
2023/10/22 09:10:29;;;;;;;;;;;12.00;99.90;;;;;;5050730;28;19927;-84
2023/10/22 09:13:08;;;;;;;;;;;12.00;99.90;;;;;;5058000;28;20029;-86
2023/10/22 09:15:44;;;;;;;;;;;12.00;99.90;;;;;;5062937;28;19963;-87
2023/10/22 09:18:10;;;;;;;;;;;12.00;99.90;;;;;;5078511;28;20018;-89
2023/10/22 09:20:37;;;;;;;;;;;12.20;99.90;;;;;;5059639;28;20006;-88
2023/10/22 09:23:20;;;;;;;;;;;12.00;99.90;;;;;;5057404;28;19949;-92
2023/10/22 09:25:47;;;;;;;;;;;12.00;99.90;;;;;;5071973;28;19935;-91
2023/10/22 09:28:16;;;;;;;;;;;12.00;99.90;;;;;;5074961;28;19969;-87
2023/10/22 09:30:46;;;;;;;;;;;12.10;99.90;;;;;;5058828;28;19924;-92
2023/10/22 09:33:12;;;;;;;;;;;12.10;99.90;;;;;;5057349;28;19999;-95
2023/10/22 09:35:37;;;;;;;;;;;12.10;99.90;;;;;;5044221;28;20405;-90
2023/10/22 09:38:03;;;;;;;;;;;12.10;99.90;;;;;;5085362;28;19920;-92
2023/10/22 09:40:31;;;;;;;;;;;12.10;99.90;;;;;;5042012;28;19933;-94
2023/10/22 09:42:57;;;;;;;;;;;12.10;99.90;;;;;;5059562;28;19932;-95
2023/10/22 09:45:23;;;;;;;;;;;12.20;99.90;;;;;;5082093;28;20030;-93
2023/10/22 09:47:50;;;;;;;;;;;12.20;99.90;;;;;;5048037;28;19931;-94
2023/10/22 09:50:19;;;;;;;;;;;12.20;99.90;;;;;;5063109;28;19947;-95
2023/10/22 09:52:44;;;;;;;;;;;12.30;99.90;;;;;;5071324;28;19919;-95
2023/10/22 09:55:12;;;;;;;;;;;12.30;99.90;;;;;;5062451;28;19920;-94
2023/10/22 09:57:39;;;;;;;;;;;13.00;99.90;;;;;;5077939;28;19981;-95
2023/10/22 10:00:10;;;;;;;;;;;12.70;99.90;;;;;;5065100;28;19981;-92
2023/10/22 10:02:36;;;;;;;;;;;13.10;99.90;;;;;;5061424;28;20315;-96
2023/10/22 10:05:02;;;;;;;;;;;12.90;99.90;;;;;;5043858;28;19934;-94
2023/10/22 10:07:30;;;;;;;;;;;12.90;99.90;;;;;;5063023;28;19974;-94
2023/10/22 10:10:02;;;;;;;;;;;12.90;99.90;;;;;;5062991;28;19946;-92
2023/10/22 10:12:30;;;;;;;;;;;12.90;99.90;;;;;;5066085;28;20351;-93
2023/10/22 10:14:56;;;;;;;;;;;12.90;99.90;;;;;;5050650;28;19920;-92
2023/10/22 10:17:23;;;;;;;;;;;12.90;99.90;;;;;;5063007;28;20026;-90
2023/10/22 10:19:49;;;;;;;;;;;12.90;99.90;;;;;;5065263;28;19927;-96
2023/10/22 10:22:41;;;;;;;;;;;12.90;99.90;;;;;;5050698;28;19928;-96
2023/10/22 10:25:25;;;;;;;;;;;12.90;99.90;;;;;;5060056;28;19924;-96
2023/10/22 10:27:52;;;;;;;;;;;12.90;99.90;;;;;;5091392;28;20354;-95
2023/10/22 10:30:20;;;;;;;;;;;13.00;99.90;;;;;;5066575;28;19920;-94
2023/10/22 10:32:48;;;;;;;;;;;13.00;99.90;;;;;;5042383;28;20640;-92
2023/10/22 10:35:14;;;;;;;;;;;13.00;99.90;;;;;;5059036;28;20383;-95
2023/10/22 10:37:59;;;;;;;;;;;13.00;99.90;;;;;;5042042;28;19927;-93
2023/10/22 10:40:45;;;;;;;;;;;13.00;99.90;;;;;;5062833;28;19973;-95
2023/10/22 10:43:11;;;;;;;;;;;12.90;99.90;;;;;;5052882;28;19946;-93
2023/10/22 10:45:41;;;;;;;;;;;12.80;99.90;;;;;;5028154;28;19928;-93
2023/10/22 10:48:27;;;;;;;;;;;12.80;99.90;;;;;;5045650;28;19927;-94
2023/10/22 10:51:13;;;;;;;;;;;12.80;99.90;;;;;;5038256;28;19927;-91
2023/10/22 10:53:57;;;;;;;;;;;12.80;99.90;;;;;;5075639;28;20346;-95
2023/10/22 10:56:43;;;;;;;;;;;12.80;99.90;;;;;;5078757;28;19921;-94
2023/10/22 10:59:09;;;;;;;;;;;12.70;99.90;;;;;;5083662;28;19920;-93
2023/10/22 11:01:35;;;;;;;;;;;12.70;99.90;;;;;;5062560;28;19939;-95
2023/10/22 11:04:07;;;;;;;;;;;12.60;99.90;;;;;;5059847;28;19937;-90
2023/10/22 11:06:33;;;;;;;;;;;12.60;99.90;;;;;;5052969;28;19932;-91
2023/10/22 11:09:02;;;;;;;;;;;12.50;99.90;;;;;;5062190;28;19920;-92
2023/10/22 11:11:27;;;;;;;;;;;12.50;99.90;;;;;;5032134;28;19931;-93
2023/10/22 11:13:53;;;;;;;;;;;12.50;99.90;;;;;;5066559;28;20015;-91
2023/10/22 11:16:19;;;;;;;;;;;12.40;99.90;;;;;;5062347;28;19920;-93
2023/10/22 11:18:58;;;;;;;;;;;12.40;99.90;;;;;;5052718;28;20448;-92
2023/10/22 11:21:23;;;;;;;;;;;12.50;99.90;;;;;;5067551;28;19964;-88
2023/10/22 11:23:49;;;;;;;;;;;12.50;99.90;;;;;;5064374;28;19998;-90
2023/10/22 11:26:15;;;;;;;;;;;12.50;99.90;;;;;;5032169;28;20443;-88
2023/10/22 11:28:40;;;;;;;;;;;12.50;99.90;;;;;;5035608;28;19920;-87
2023/10/22 11:31:21;;;;;;;;;;;12.60;99.90;;;;;;5018748;28;20373;-89
2023/10/22 11:33:47;;;;;;;;;;;12.60;99.90;;;;;;5067512;28;19931;-89
2023/10/22 11:36:16;;;;;;;;;;;12.60;99.90;;;;;;5089098;28;20006;-85
2023/10/22 11:38:42;;;;;;;;;;;12.60;99.90;;;;;;5067551;28;19928;-92
2023/10/22 11:41:07;;;;;;;;;;;12.70;99.90;;;;;;5057219;28;19931;-88
2023/10/22 11:43:40;;;;;;;;;;;12.70;99.90;;;;;;5058523;28;19951;-89
2023/10/22 11:46:06;;;;;;;;;;;12.80;99.90;;;;;;5052050;28;19931;-87
2023/10/22 11:48:35;;;;;;;;;;;12.90;99.90;;;;;;5031416;28;19925;-91
2023/10/22 11:51:01;;;;;;;;;;;13.00;99.90;;;;;;5065480;28;19966;-90
2023/10/22 11:53:29;;;;;;;;;;;13.10;99.90;;;;;;5060544;28;19960;-90
2023/10/22 11:55:54;;;;;;;;;;;13.10;99.90;;;;;;5058421;28;19920;-92
2023/10/22 11:58:22;;;;;;;;;;;13.00;99.90;;;;;;5042897;28;19943;-92
2023/10/22 12:00:48;;;;;;;;;;;13.00;99.90;;;;;;5056692;28;19943;-87
2023/10/22 12:03:14;;;;;;;;;;;12.80;99.90;;;;;;5072130;28;19920;-89
2023/10/22 12:05:39;;;;;;;;;;;12.70;99.90;;;;;;5021933;28;19920;-90
2023/10/22 12:08:05;;;;;;;;;;;12.60;99.90;;;;;;5022436;28;19921;-92
2023/10/22 12:10:31;;;;;;;;;;;12.60;99.90;;;;;;5039825;28;20244;-93
2023/10/22 12:12:56;;;;;;;;;;;12.50;99.90;;;;;;5015215;28;19928;-89
2023/10/22 12:15:22;;;;;;;;;;;12.20;99.90;;;;;;5038859;28;19929;-87
2023/10/22 12:17:48;;;;;;;;;;;12.50;99.90;;;;;;5053204;28;19929;-89
2023/10/22 12:20:13;;;;;;;;;;;12.50;99.90;;;;;;5039591;28;20840;-90
2023/10/22 12:22:39;;;;;;;;;;;12.50;99.90;;;;;;5072591;28;20634;-89
2023/10/22 12:25:06;;;;;;;;;;;12.50;99.90;;;;;;5038815;28;19928;-87
2023/10/22 12:27:32;;;;;;;;;;;12.50;99.90;;;;;;5052632;28;19990;-88
2023/10/22 12:29:58;;;;;;;;;;;12.50;99.90;;;;;;5018631;28;19921;-88
2023/10/22 12:32:24;;;;;;;;;;;12.50;99.90;;;;;;5067234;28;19928;-88
2023/10/22 12:34:50;;;;;;;;;;;12.60;99.90;;;;;;5048601;28;19924;-90
2023/10/22 12:37:15;;;;;;;;;;;12.60;99.90;;;;;;5036193;28;20019;-88
2023/10/22 12:39:42;;;;;;;;;;;12.70;99.90;;;;;;5064406;28;19947;-89
2023/10/22 12:42:11;;;;;;;;;;;12.80;99.90;;;;;;5022628;28;21024;-89
2023/10/22 12:44:36;;;;;;;;;;;12.90;99.90;;;;;;5037623;28;20378;-89
2023/10/22 12:47:02;;;;;;;;;;;12.90;99.90;;;;;;5053994;28;19928;-90
2023/10/22 12:49:28;;;;;;;;;;;12.90;99.90;;;;;;5076763;28;20731;-88
2023/10/22 12:51:53;;;;;;;;;;;13.00;99.90;;;;;;5051249;28;19957;-89
2023/10/22 12:54:19;;;;;;;;;;;13.00;99.90;;;;;;5057555;28;19979;-89
2023/10/22 12:56:45;;;;;;;;;;;13.00;99.90;;;;;;5045147;28;20446;-89
2023/10/22 12:59:11;;;;;;;;;;;13.00;99.90;;;;;;5038336;28;19928;-87
2023/10/22 13:01:37;;;;;;;;;;;13.00;99.90;;;;;;5076665;28;19927;-88
2023/10/22 13:04:03;;;;;;;;;;;13.00;99.90;;;;;;5075555;28;19932;-88
2023/10/22 13:06:28;;;;;;;;;;;13.00;99.90;;;;;;5041725;28;19937;-91
2023/10/22 13:08:54;;;;;;;;;;;13.00;99.90;;;;;;5074808;28;19924;-89
2023/10/22 13:11:21;;;;;;;;;;;13.00;99.90;;;;;;5041377;28;19949;-89
2023/10/22 13:13:50;;;;;;;;;;;13.00;99.90;;;;;;5042245;28;19924;-87
2023/10/22 13:16:16;;;;;;;;;;;12.90;99.90;;;;;;5059849;28;19924;-88
2023/10/22 13:18:42;;;;;;;;;;;12.90;99.90;;;;;;5078795;28;19939;-87
2023/10/22 13:21:08;;;;;;;;;;;12.90;99.90;;;;;;5041413;28;20014;-89
2023/10/22 13:23:34;;;;;;;;;;;12.90;99.90;;;;;;5057049;28;19942;-89
2023/10/22 13:25:59;;;;;;;;;;;12.90;99.90;;;;;;5060000;28;19924;-87
2023/10/22 13:28:25;;;;;;;;;;;12.90;99.90;;;;;;5044953;28;19928;-86
2023/10/22 13:30:51;;;;;;;;;;;13.00;99.90;;;;;;5062445;28;19947;-89
2023/10/22 13:33:16;;;;;;;;;;;13.00;99.90;;;;;;5036651;28;20380;-90
2023/10/22 13:35:42;;;;;;;;;;;13.00;99.90;;;;;;5044492;28;19919;-90
2023/10/22 13:38:07;;;;;;;;;;;12.90;99.90;;;;;;5042102;28;19923;-89
2023/10/22 13:40:36;;;;;;;;;;;12.90;99.90;;;;;;5041531;28;19977;-89
2023/10/22 13:43:01;;;;;;;;;;;12.90;99.90;;;;;;5060613;28;19924;-87
2023/10/22 13:45:28;;;;;;;;;;;12.90;99.90;;;;;;5044135;28;19920;-87
2023/10/22 13:47:54;;;;;;;;;;;12.80;99.90;;;;;;5057247;28;19927;-88
2023/10/22 13:50:20;;;;;;;;;;;12.70;99.90;;;;;;5057744;28;19927;-87
2023/10/22 13:52:49;;;;;;;;;;;12.70;99.90;;;;;;5057242;28;19921;-89
2023/10/22 13:55:15;;;;;;;;;;;12.70;99.90;;;;;;5059399;28;19924;-88
2023/10/22 13:57:40;;;;;;;;;;;12.70;99.90;;;;;;5039772;28;20369;-90
2023/10/22 14:00:09;;;;;;;;;;;12.70;99.90;;;;;;5056217;28;19928;-90
2023/10/22 14:02:36;;;;;;;;;;;12.60;99.90;;;;;;5059030;28;19928;-87
2023/10/22 14:05:01;;;;;;;;;;;12.60;99.90;;;;;;5041225;28;19942;-89
2023/10/22 14:07:28;;;;;;;;;;;12.50;99.90;;;;;;5044915;28;19920;-89
2023/10/22 14:09:54;;;;;;;;;;;12.50;99.90;;;;;;5057100;28;19920;-88
2023/10/22 14:12:19;;;;;;;;;;;12.50;99.90;;;;;;5041548;28;20429;-88
2023/10/22 14:14:45;;;;;;;;;;;12.40;99.90;;;;;;5040498;28;19920;-89